Teruhou Maru No.22 — JD3202 — position and weather

sailwx.info

Track history (hours):
 
Tides and Currents Weather Stations Pressure Air Temp Water Temp Dewpoint Dewpoint Depression Visibility Wind Speed Wind Dir Waves Ship Positions

Teruhou Maru No.22

Last reported at 2017-Apr-26 22:01 UTC. Time now 2017-Apr-27 18:49 UTC.
Position N 34°41' E 134°49'.

Length 76 m; draft 5 m.

Type: Cargo ship. MMSI: 431002552.

Date/timePositionNaut miles runAvg speedWind from/ knotsBaromVisibWave heightAir tempDewpointWater temp
2017-Apr-26 22:01N 34°41' E 134°49'11 0.7
2017-Apr-26 06:39N 34°37' E 135°02'1 9.9
2017-Apr-26 06:30N 34°36' E 135°03'611.7
2017-Apr-26 06:00N 34°37' E 135°10'510.1
2017-Apr-26 05:30N 34°40' E 135°15'3 5.5
2017-Apr-26 05:00N 34°42' E 135°15'0 0.0
2017-Apr-26 04:26N 34°42' E 135°15'0 0.0
2017-Apr-26 03:56N 34°42' E 135°15'0 0.0
2017-Apr-26 03:26N 34°42' E 135°15'0 0.0
2017-Apr-26 02:56N 34°42' E 135°15'0 0.0
2017-Apr-26 02:26N 34°42' E 135°15'0 0.0
2017-Apr-26 01:56N 34°42' E 135°15'0 0.0
2017-Apr-26 01:26N 34°42' E 135°15'0 0.0
2017-Apr-26 00:56N 34°42' E 135°15'0 0.0
2017-Apr-26 00:26N 34°42' E 135°15'2 4.3
2017-Apr-26 00:00N 34°40' E 135°15'5 9.5
2017-Apr-25 23:30N 34°37' E 135°11'611.3
2017-Apr-25 23:00N 34°35' E 135°05'9 0.6
2017-Apr-25 07:47N 34°37' E 134°54'413.3
2017-Apr-25 07:30N 34°38' E 134°59'611.9
2017-Apr-25 07:00N 34°36' E 135°06'612.1
2017-Apr-25 06:30N 34°36' E 135°13'611.5
2017-Apr-25 06:00N 34°37' E 135°20'611.6
2017-Apr-25 05:30N 34°39' E 135°27'1 1.5
2017-Apr-25 04:59N 34°39' E 135°28'0 0.0
2017-Apr-25 02:42N 34°39' E 135°28'0 0.0
2017-Apr-25 02:12N 34°39' E 135°28'0 0.0
2017-Apr-24 23:42N 34°39' E 135°28'0 0.9
2017-Apr-24 23:30N 34°39' E 135°27'3 7.0
2017-Apr-24 23:00N 34°38' E 135°23'611.5
2017-Apr-24 22:30N 34°32' E 135°24'2 2.7
2017-Apr-24 21:52N 34°31' E 135°24'0 0.0
2017-Apr-24 21:28N 34°31' E 135°24'0 0.0
2017-Apr-24 20:46N 34°31' E 135°24'0 0.0
2017-Apr-24 20:28N 34°31' E 135°24'0 0.0
2017-Apr-24 19:58N 34°31' E 135°24'0 0.0
2017-Apr-24 19:28N 34°31' E 135°24'0 0.0
2017-Apr-24 18:58N 34°31' E 135°24'0 0.0
2017-Apr-24 18:28N 34°31' E 135°24'0 0.0
2017-Apr-24 17:58N 34°31' E 135°24'0 0.0
2017-Apr-24 17:22N 34°31' E 135°24'0 0.0
2017-Apr-24 16:58N 34°31' E 135°24'0 0.0
2017-Apr-24 16:28N 34°31' E 135°24'0 0.0
2017-Apr-24 15:52N 34°31' E 135°24'0 0.0
2017-Apr-24 15:28N 34°31' E 135°24'0 0.0
2017-Apr-24 14:04N 34°31' E 135°24'0 0.0
2017-Apr-24 13:28N 34°31' E 135°24'0 0.0
2017-Apr-24 12:40N 34°31' E 135°24'0 0.0
2017-Apr-24 12:10N 34°31' E 135°24'0 0.0
2017-Apr-24 11:58N 34°31' E 135°24'0 0.0
2017-Apr-24 11:16N 34°31' E 135°24'0 0.0
2017-Apr-24 10:52N 34°31' E 135°24'0 0.0
2017-Apr-24 10:22N 34°31' E 135°24'0 0.0
2017-Apr-24 09:52N 34°31' E 135°24'0 0.0
2017-Apr-24 09:28N 34°31' E 135°24'0 0.0
2017-Apr-24 08:34N 34°31' E 135°24'0 0.0
2017-Apr-24 08:22N 34°31' E 135°24'0 0.0
2017-Apr-24 07:58N 34°31' E 135°24'0 0.0
2017-Apr-24 07:28N 34°31' E 135°24'0 0.0
2017-Apr-24 06:58N 34°31' E 135°24'0 0.0
2017-Apr-24 06:28N 34°31' E 135°24'0 0.0
2017-Apr-24 05:58N 34°31' E 135°24'0 0.0
2017-Apr-24 05:22N 34°31' E 135°24'0 0.0
2017-Apr-24 00:16N 34°31' E 135°24'0 0.0
2017-Apr-23 23:52N 34°31' E 135°24'0 0.0
2017-Apr-23 23:28N 34°31' E 135°24'0 0.0
2017-Apr-23 22:52N 34°31' E 135°24'0 0.0
2017-Apr-23 22:28N 34°31' E 135°24'0 0.0
2017-Apr-23 21:58N 34°31' E 135°24'0 0.0
2017-Apr-23 21:28N 34°31' E 135°24'0 0.0
2017-Apr-23 20:52N 34°31' E 135°24'0 0.0
2017-Apr-23 20:28N 34°31' E 135°24'0 0.0
2017-Apr-23 19:58N 34°31' E 135°24'0 0.0
2017-Apr-23 19:28N 34°31' E 135°24'0 0.0
2017-Apr-23 18:58N 34°31' E 135°24'0 0.0
2017-Apr-23 18:28N 34°31' E 135°24'0 0.0
2017-Apr-23 17:58N 34°31' E 135°24'0 0.0
2017-Apr-23 17:10N 34°31' E 135°24'0 0.0
2017-Apr-23 16:16N 34°31' E 135°24'0 0.0
2017-Apr-23 15:52N 34°31' E 135°24'0 0.0
2017-Apr-23 14:40N 34°31' E 135°24'0 0.0
2017-Apr-23 13:46N 34°31' E 135°24'0 0.0
2017-Apr-23 13:28N 34°31' E 135°24'0 0.0
2017-Apr-23 12:58N 34°31' E 135°24'0 0.0
2017-Apr-23 12:22N 34°31' E 135°24'0 0.0
2017-Apr-23 11:58N 34°31' E 135°24'0 0.0
2017-Apr-23 11:22N 34°31' E 135°24'0 0.0
2017-Apr-23 10:58N 34°31' E 135°24'0 0.0
2017-Apr-23 10:28N 34°31' E 135°24'0 0.0
2017-Apr-23 09:58N 34°31' E 135°24'0 0.0
2017-Apr-23 09:28N 34°31' E 135°24'0 0.0
2017-Apr-23 08:58N 34°31' E 135°24'0 0.0
2017-Apr-23 08:28N 34°31' E 135°24'0 0.0
2017-Apr-23 07:58N 34°31' E 135°24'0 0.0
2017-Apr-23 07:28N 34°31' E 135°24'0 0.0
2017-Apr-23 06:58N 34°31' E 135°24'0 0.0
2017-Apr-23 06:28N 34°31' E 135°24'0 0.0
2017-Apr-23 05:52N 34°31' E 135°24'0 0.0
2017-Apr-23 05:28N 34°31' E 135°24'0 0.0
2017-Apr-23 04:58N 34°31' E 135°24'0 0.0
2017-Apr-23 04:28N 34°31' E 135°24'0 0.0
2017-Apr-23 03:28N 34°31' E 135°24'0 0.0
2017-Apr-23 00:46N 34°31' E 135°24'0 0.0
2017-Apr-23 00:28N 34°31' E 135°24'0 0.0
2017-Apr-22 23:46N 34°31' E 135°24'0 0.0
2017-Apr-22 23:31N 34°31' E 135°24'1 2.2
2017-Apr-22 22:58N 34°32' E 135°24'511.0
2017-Apr-22 22:30N 34°30' E 135°18'612.2
2017-Apr-22 22:00N 34°27' E 135°12'213 5.8
2017-Apr-21 09:22N 34°60' E 139°28'511.3
2017-Apr-21 08:57N 35°02' E 139°33'511.8
2017-Apr-21 08:30N 35°05' E 139°39'611.9
2017-Apr-21 08:00N 35°09' E 139°44'611.9
2017-Apr-21 07:30N 35°15' E 139°47'612.3
2017-Apr-21 07:01N 35°20' E 139°43'511.0
2017-Apr-21 06:30N 35°25' E 139°45'611.2
2017-Apr-21 05:59N 35°23' E 139°51'1 0.0
2017-Apr-19 21:46N 35°24' E 139°51'0 0.1
2017-Apr-19 21:29N 35°24' E 139°51'0 0.0
2017-Apr-19 20:45N 35°24' E 139°51'0 0.0
2017-Apr-19 20:30N 35°24' E 139°51'0 0.0
2017-Apr-19 20:00N 35°24' E 139°51'0 0.1
2017-Apr-19 19:30N 35°24' E 139°51'0 0.1
2017-Apr-19 18:59N 35°24' E 139°51'0 0.0
2017-Apr-19 18:30N 35°24' E 139°51'0 0.1
2017-Apr-19 18:00N 35°24' E 139°51'0 0.0
2017-Apr-19 17:29N 35°24' E 139°51'0 0.0
2017-Apr-19 17:00N 35°24' E 139°51'0 0.1
2017-Apr-19 16:30N 35°24' E 139°51'0 0.1
2017-Apr-19 16:00N 35°24' E 139°51'0 0.0
2017-Apr-19 15:30N 35°24' E 139°51'0 0.0
2017-Apr-19 15:00N 35°24' E 139°51'0 0.0
2017-Apr-19 14:30N 35°24' E 139°51'0 0.0
2017-Apr-19 13:24N 35°24' E 139°51'0 0.0
2017-Apr-19 13:00N 35°24' E 139°51'0 0.0
2017-Apr-19 12:30N 35°24' E 139°51'0 0.0
2017-Apr-19 12:00N 35°24' E 139°51'0 0.0
2017-Apr-19 11:30N 35°24' E 139°51'0 0.0
2017-Apr-19 11:01N 35°24' E 139°51'0 0.0
2017-Apr-19 10:31N 35°24' E 139°51'0 0.0
2017-Apr-19 10:00N 35°24' E 139°51'0 0.0
2017-Apr-19 09:27N 35°24' E 139°51'0 0.0
2017-Apr-19 08:56N 35°24' E 139°51'0 0.0
2017-Apr-19 07:24N 35°24' E 139°51'0 0.0
2017-Apr-18 13:32N 35°24' E 139°51'0 0.0
2017-Apr-18 13:23N 35°24' E 139°51'0 0.0
2017-Apr-18 12:44N 35°24' E 139°51'0 0.0
2017-Apr-18 08:41N 35°24' E 139°51'212.4
2017-Apr-18 08:30N 35°24' E 139°48'612.9
2017-Apr-18 08:00N 35°27' E 139°41'1 1.1
2017-Apr-18 07:30N 35°27' E 139°41'0 0.0
2017-Apr-18 07:00N 35°27' E 139°41'0 0.0
2017-Apr-18 06:30N 35°27' E 139°41'0 0.0
2017-Apr-18 06:00N 35°27' E 139°41'0 0.0
2017-Apr-18 05:30N 35°27' E 139°41'0 0.0
2017-Apr-18 05:00N 35°27' E 139°41'0 0.0
2017-Apr-18 04:30N 35°27' E 139°41'0 0.0
2017-Apr-18 04:00N 35°27' E 139°41'0 0.0
2017-Apr-18 03:30N 35°27' E 139°41'0 0.0
2017-Apr-18 03:00N 35°27' E 139°41'0 0.0
2017-Apr-18 02:30N 35°27' E 139°41'0 0.0
2017-Apr-18 02:00N 35°27' E 139°41'0 0.0
2017-Apr-18 01:30N 35°27' E 139°41'0 0.0
2017-Apr-18 01:00N 35°27' E 139°41'0 0.7
2017-Apr-18 00:31N 35°27' E 139°41'1 2.7
2017-Apr-18 00:00N 35°26' E 139°42'0 0.0
2017-Apr-17 23:30N 35°26' E 139°42'0 0.0
2017-Apr-17 23:00N 35°26' E 139°42'0 0.0
2017-Apr-17 22:30N 35°26' E 139°42'0 0.1
2017-Apr-17 22:00N 35°26' E 139°42'0 0.1
2017-Apr-17 21:31N 35°26' E 139°42'0 0.0
2017-Apr-17 21:00N 35°26' E 139°42'0 0.0
2017-Apr-17 20:30N 35°26' E 139°42'0 0.0
2017-Apr-17 20:00N 35°26' E 139°42'0 0.1
2017-Apr-17 19:31N 35°26' E 139°42'0 0.1
2017-Apr-17 19:00N 35°26' E 139°42'0 0.0
2017-Apr-17 18:30N 35°26' E 139°42'0 0.0
2017-Apr-17 18:01N 35°26' E 139°42'0 0.0
2017-Apr-17 17:31N 35°26' E 139°42'0 0.0
2017-Apr-17 17:01N 35°26' E 139°42'0 0.0
2017-Apr-17 16:30N 35°26' E 139°42'0 0.0
2017-Apr-17 16:00N 35°26' E 139°42'0 0.0
2017-Apr-17 15:30N 35°26' E 139°42'0 0.0
2017-Apr-17 15:00N 35°26' E 139°42'0 0.0
2017-Apr-17 14:30N 35°26' E 139°42'5 4.6
2017-Apr-17 13:30N 35°22' E 139°43'612.2
2017-Apr-17 13:01N 35°16' E 139°46'612.2
2017-Apr-17 12:30N 35°10' E 139°46'612.0
2017-Apr-17 12:00N 35°05' E 139°43'712.7
2017-Apr-17 11:29N 35°00' E 139°37'  
Track history (hours):
 
Tides and Currents Weather Stations Pressure Air Temp Water Temp Dewpoint Dewpoint Depression Visibility Wind Speed Wind Dir Waves Ship Positions

Teruhou Maru No.22

Last reported at 2017-Apr-26 22:01 UTC. Time now 2017-Apr-27 18:49 UTC.
Position N 34°41' E 134°49'.

Length 76 m; draft 5 m.

Type: Cargo ship. MMSI: 431002552.

Date/timePositionNaut miles runAvg speedWind from/ knotsBaromVisibWave heightAir tempDewpointWater temp
2017-Apr-26 22:01N 34°41' E 134°49'11 0.7
2017-Apr-26 06:39N 34°37' E 135°02'1 9.9
2017-Apr-26 06:30N 34°36' E 135°03'611.7
2017-Apr-26 06:00N 34°37' E 135°10'510.1
2017-Apr-26 05:30N 34°40' E 135°15'3 5.5
2017-Apr-26 05:00N 34°42' E 135°15'0 0.0
2017-Apr-26 04:26N 34°42' E 135°15'0 0.0
2017-Apr-26 03:56N 34°42' E 135°15'0 0.0
2017-Apr-26 03:26N 34°42' E 135°15'0 0.0
2017-Apr-26 02:56N 34°42' E 135°15'0 0.0
2017-Apr-26 02:26N 34°42' E 135°15'0 0.0
2017-Apr-26 01:56N 34°42' E 135°15'0 0.0
2017-Apr-26 01:26N 34°42' E 135°15'0 0.0
2017-Apr-26 00:56N 34°42' E 135°15'0 0.0
2017-Apr-26 00:26N 34°42' E 135°15'2 4.3
2017-Apr-26 00:00N 34°40' E 135°15'5 9.5
2017-Apr-25 23:30N 34°37' E 135°11'611.3
2017-Apr-25 23:00N 34°35' E 135°05'9 0.6
2017-Apr-25 07:47N 34°37' E 134°54'413.3
2017-Apr-25 07:30N 34°38' E 134°59'611.9
2017-Apr-25 07:00N 34°36' E 135°06'612.1
2017-Apr-25 06:30N 34°36' E 135°13'611.5
2017-Apr-25 06:00N 34°37' E 135°20'611.6
2017-Apr-25 05:30N 34°39' E 135°27'1 1.5
2017-Apr-25 04:59N 34°39' E 135°28'0 0.0
2017-Apr-25 02:42N 34°39' E 135°28'0 0.0
2017-Apr-25 02:12N 34°39' E 135°28'0 0.0
2017-Apr-24 23:42N 34°39' E 135°28'0 0.9
2017-Apr-24 23:30N 34°39' E 135°27'3 7.0
2017-Apr-24 23:00N 34°38' E 135°23'611.5
2017-Apr-24 22:30N 34°32' E 135°24'2 2.7
2017-Apr-24 21:52N 34°31' E 135°24'0 0.0
2017-Apr-24 21:28N 34°31' E 135°24'0 0.0
2017-Apr-24 20:46N 34°31' E 135°24'0 0.0
2017-Apr-24 20:28N 34°31' E 135°24'0 0.0
2017-Apr-24 19:58N 34°31' E 135°24'0 0.0
2017-Apr-24 19:28N 34°31' E 135°24'0 0.0
2017-Apr-24 18:58N 34°31' E 135°24'0 0.0
2017-Apr-24 18:28N 34°31' E 135°24'0 0.0
2017-Apr-24 17:58N 34°31' E 135°24'0 0.0
2017-Apr-24 17:22N 34°31' E 135°24'0 0.0
2017-Apr-24 16:58N 34°31' E 135°24'0 0.0
2017-Apr-24 16:28N 34°31' E 135°24'0 0.0
2017-Apr-24 15:52N 34°31' E 135°24'0 0.0
2017-Apr-24 15:28N 34°31' E 135°24'0 0.0
2017-Apr-24 14:04N 34°31' E 135°24'0 0.0
2017-Apr-24 13:28N 34°31' E 135°24'0 0.0
2017-Apr-24 12:40N 34°31' E 135°24'0 0.0
2017-Apr-24 12:10N 34°31' E 135°24'0 0.0
2017-Apr-24 11:58N 34°31' E 135°24'0 0.0
2017-Apr-24 11:16N 34°31' E 135°24'0 0.0
2017-Apr-24 10:52N 34°31' E 135°24'0 0.0
2017-Apr-24 10:22N 34°31' E 135°24'0 0.0
2017-Apr-24 09:52N 34°31' E 135°24'0 0.0
2017-Apr-24 09:28N 34°31' E 135°24'0 0.0
2017-Apr-24 08:34N 34°31' E 135°24'0 0.0
2017-Apr-24 08:22N 34°31' E 135°24'0 0.0
2017-Apr-24 07:58N 34°31' E 135°24'0 0.0
2017-Apr-24 07:28N 34°31' E 135°24'0 0.0
2017-Apr-24 06:58N 34°31' E 135°24'0 0.0
2017-Apr-24 06:28N 34°31' E 135°24'0 0.0
2017-Apr-24 05:58N 34°31' E 135°24'0 0.0
2017-Apr-24 05:22N 34°31' E 135°24'0 0.0
2017-Apr-24 00:16N 34°31' E 135°24'0 0.0
2017-Apr-23 23:52N 34°31' E 135°24'0 0.0
2017-Apr-23 23:28N 34°31' E 135°24'0 0.0
2017-Apr-23 22:52N 34°31' E 135°24'0 0.0
2017-Apr-23 22:28N 34°31' E 135°24'0 0.0
2017-Apr-23 21:58N 34°31' E 135°24'0 0.0
2017-Apr-23 21:28N 34°31' E 135°24'0 0.0
2017-Apr-23 20:52N 34°31' E 135°24'0 0.0
2017-Apr-23 20:28N 34°31' E 135°24'0 0.0
2017-Apr-23 19:58N 34°31' E 135°24'0 0.0
2017-Apr-23 19:28N 34°31' E 135°24'0 0.0
2017-Apr-23 18:58N 34°31' E 135°24'0 0.0
2017-Apr-23 18:28N 34°31' E 135°24'0 0.0
2017-Apr-23 17:58N 34°31' E 135°24'0 0.0
2017-Apr-23 17:10N 34°31' E 135°24'0 0.0
2017-Apr-23 16:16N 34°31' E 135°24'0 0.0
2017-Apr-23 15:52N 34°31' E 135°24'0 0.0
2017-Apr-23 14:40N 34°31' E 135°24'0 0.0
2017-Apr-23 13:46N 34°31' E 135°24'0 0.0
2017-Apr-23 13:28N 34°31' E 135°24'0 0.0
2017-Apr-23 12:58N 34°31' E 135°24'0 0.0
2017-Apr-23 12:22N 34°31' E 135°24'0 0.0
2017-Apr-23 11:58N 34°31' E 135°24'0 0.0
2017-Apr-23 11:22N 34°31' E 135°24'0 0.0
2017-Apr-23 10:58N 34°31' E 135°24'0 0.0
2017-Apr-23 10:28N 34°31' E 135°24'0 0.0
2017-Apr-23 09:58N 34°31' E 135°24'0 0.0
2017-Apr-23 09:28N 34°31' E 135°24'0 0.0
2017-Apr-23 08:58N 34°31' E 135°24'0 0.0
2017-Apr-23 08:28N 34°31' E 135°24'0 0.0
2017-Apr-23 07:58N 34°31' E 135°24'0 0.0
2017-Apr-23 07:28N 34°31' E 135°24'0 0.0
2017-Apr-23 06:58N 34°31' E 135°24'0 0.0
2017-Apr-23 06:28N 34°31' E 135°24'0 0.0
2017-Apr-23 05:52N 34°31' E 135°24'0 0.0
2017-Apr-23 05:28N 34°31' E 135°24'0 0.0
2017-Apr-23 04:58N 34°31' E 135°24'0 0.0
2017-Apr-23 04:28N 34°31' E 135°24'0 0.0
2017-Apr-23 03:28N 34°31' E 135°24'0 0.0
2017-Apr-23 00:46N 34°31' E 135°24'0 0.0
2017-Apr-23 00:28N 34°31' E 135°24'0 0.0
2017-Apr-22 23:46N 34°31' E 135°24'0 0.0
2017-Apr-22 23:31N 34°31' E 135°24'1 2.2
2017-Apr-22 22:58N 34°32' E 135°24'511.0
2017-Apr-22 22:30N 34°30' E 135°18'612.2
2017-Apr-22 22:00N 34°27' E 135°12'213 5.8
2017-Apr-21 09:22N 34°60' E 139°28'511.3
2017-Apr-21 08:57N 35°02' E 139°33'511.8
2017-Apr-21 08:30N 35°05' E 139°39'611.9
2017-Apr-21 08:00N 35°09' E 139°44'611.9
2017-Apr-21 07:30N 35°15' E 139°47'612.3
2017-Apr-21 07:01N 35°20' E 139°43'511.0
2017-Apr-21 06:30N 35°25' E 139°45'611.2
2017-Apr-21 05:59N 35°23' E 139°51'1 0.0
2017-Apr-19 21:46N 35°24' E 139°51'0 0.1
2017-Apr-19 21:29N 35°24' E 139°51'0 0.0
2017-Apr-19 20:45N 35°24' E 139°51'0 0.0
2017-Apr-19 20:30N 35°24' E 139°51'0 0.0
2017-Apr-19 20:00N 35°24' E 139°51'0 0.1
2017-Apr-19 19:30N 35°24' E 139°51'0 0.1
2017-Apr-19 18:59N 35°24' E 139°51'0 0.0
2017-Apr-19 18:30N 35°24' E 139°51'0 0.1
2017-Apr-19 18:00N 35°24' E 139°51'0 0.0
2017-Apr-19 17:29N 35°24' E 139°51'0 0.0
2017-Apr-19 17:00N 35°24' E 139°51'0 0.1
2017-Apr-19 16:30N 35°24' E 139°51'0 0.1
2017-Apr-19 16:00N 35°24' E 139°51'0 0.0
2017-Apr-19 15:30N 35°24' E 139°51'0 0.0
2017-Apr-19 15:00N 35°24' E 139°51'0 0.0
2017-Apr-19 14:30N 35°24' E 139°51'0 0.0
2017-Apr-19 13:24N 35°24' E 139°51'0 0.0
2017-Apr-19 13:00N 35°24' E 139°51'0 0.0
2017-Apr-19 12:30N 35°24' E 139°51'0 0.0
2017-Apr-19 12:00N 35°24' E 139°51'0 0.0
2017-Apr-19 11:30N 35°24' E 139°51'0 0.0
2017-Apr-19 11:01N 35°24' E 139°51'0 0.0
2017-Apr-19 10:31N 35°24' E 139°51'0 0.0
2017-Apr-19 10:00N 35°24' E 139°51'0 0.0
2017-Apr-19 09:27N 35°24' E 139°51'0 0.0
2017-Apr-19 08:56N 35°24' E 139°51'0 0.0
2017-Apr-19 07:24N 35°24' E 139°51'0 0.0
2017-Apr-18 13:32N 35°24' E 139°51'0 0.0
2017-Apr-18 13:23N 35°24' E 139°51'0 0.0
2017-Apr-18 12:44N 35°24' E 139°51'0 0.0
2017-Apr-18 08:41N 35°24' E 139°51'212.4
2017-Apr-18 08:30N 35°24' E 139°48'612.9
2017-Apr-18 08:00N 35°27' E 139°41'1 1.1
2017-Apr-18 07:30N 35°27' E 139°41'0 0.0
2017-Apr-18 07:00N 35°27' E 139°41'0 0.0
2017-Apr-18 06:30N 35°27' E 139°41'0 0.0
2017-Apr-18 06:00N 35°27' E 139°41'0 0.0
2017-Apr-18 05:30N 35°27' E 139°41'0 0.0
2017-Apr-18 05:00N 35°27' E 139°41'0 0.0
2017-Apr-18 04:30N 35°27' E 139°41'0 0.0
2017-Apr-18 04:00N 35°27' E 139°41'0 0.0
2017-Apr-18 03:30N 35°27' E 139°41'0 0.0
2017-Apr-18 03:00N 35°27' E 139°41'0 0.0
2017-Apr-18 02:30N 35°27' E 139°41'0 0.0
2017-Apr-18 02:00N 35°27' E 139°41'0 0.0
2017-Apr-18 01:30N 35°27' E 139°41'0 0.0
2017-Apr-18 01:00N 35°27' E 139°41'0 0.7
2017-Apr-18 00:31N 35°27' E 139°41'1 2.7
2017-Apr-18 00:00N 35°26' E 139°42'0 0.0
2017-Apr-17 23:30N 35°26' E 139°42'0 0.0
2017-Apr-17 23:00N 35°26' E 139°42'0 0.0
2017-Apr-17 22:30N 35°26' E 139°42'0 0.1
2017-Apr-17 22:00N 35°26' E 139°42'0 0.1
2017-Apr-17 21:31N 35°26' E 139°42'0 0.0
2017-Apr-17 21:00N 35°26' E 139°42'0 0.0
2017-Apr-17 20:30N 35°26' E 139°42'0 0.0
2017-Apr-17 20:00N 35°26' E 139°42'0 0.1
2017-Apr-17 19:31N 35°26' E 139°42'0 0.1
2017-Apr-17 19:00N 35°26' E 139°42'0 0.0
2017-Apr-17 18:30N 35°26' E 139°42'0 0.0
2017-Apr-17 18:01N 35°26' E 139°42'0 0.0
2017-Apr-17 17:31N 35°26' E 139°42'0 0.0
2017-Apr-17 17:01N 35°26' E 139°42'0 0.0
2017-Apr-17 16:30N 35°26' E 139°42'0 0.0
2017-Apr-17 16:00N 35°26' E 139°42'0 0.0
2017-Apr-17 15:30N 35°26' E 139°42'0 0.0
2017-Apr-17 15:00N 35°26' E 139°42'0 0.0
2017-Apr-17 14:30N 35°26' E 139°42'5 4.6
2017-Apr-17 13:30N 35°22' E 139°43'612.2
2017-Apr-17 13:01N 35°16' E 139°46'612.2
2017-Apr-17 12:30N 35°10' E 139°46'612.0
2017-Apr-17 12:00N 35°05' E 139°43'712.7
2017-Apr-17 11:29N 35°00' E 139°37'  

Dump ship's entire track history